sensor_id;sensor_type;location;lat;lon;timestamp;P1;durP1;ratioP1;P2;durP2;ratioP2
58294;SDS011;45705;55.592;37.460;2023-05-16T00:00:23;27.90;;;9.90;;
58294;SDS011;45705;55.592;37.460;2023-05-16T00:02:52;26.83;;;10.63;;
58294;SDS011;45705;55.592;37.460;2023-05-16T00:05:18;36.95;;;9.30;;
58294;SDS011;45705;55.592;37.460;2023-05-16T00:07:45;31.13;;;11.10;;
58294;SDS011;45705;55.592;37.460;2023-05-16T00:10:11;40.50;;;12.77;;
58294;SDS011;45705;55.592;37.460;2023-05-16T00:12:37;38.45;;;12.95;;
58294;SDS011;45705;55.592;37.460;2023-05-16T00:15:05;41.28;;;10.48;;
58294;SDS011;45705;55.592;37.460;2023-05-16T00:20:00;49.80;;;17.98;;
58294;SDS011;45705;55.592;37.460;2023-05-16T00:22:29;54.03;;;16.98;;
58294;SDS011;45705;55.592;37.460;2023-05-16T00:24:55;40.67;;;15.38;;
58294;SDS011;45705;55.592;37.460;2023-05-16T00:27:20;13.57;;;6.53;;
58294;SDS011;45705;55.592;37.460;2023-05-16T00:29:48;15.73;;;8.40;;
58294;SDS011;45705;55.592;37.460;2023-05-16T00:32:13;16.30;;;6.65;;
58294;SDS011;45705;55.592;37.460;2023-05-16T00:34:40;25.02;;;7.05;;
58294;SDS011;45705;55.592;37.460;2023-05-16T00:37:05;19.50;;;6.50;;
58294;SDS011;45705;55.592;37.460;2023-05-16T00:39:31;24.15;;;9.85;;
58294;SDS011;45705;55.592;37.460;2023-05-16T00:41:57;22.33;;;9.98;;
58294;SDS011;45705;55.592;37.460;2023-05-16T00:44:23;23.20;;;7.70;;
58294;SDS011;45705;55.592;37.460;2023-05-16T00:46:49;15.43;;;5.28;;
58294;SDS011;45705;55.592;37.460;2023-05-16T00:49:14;16.13;;;5.68;;
58294;SDS011;45705;55.592;37.460;2023-05-16T00:51:41;11.25;;;5.85;;
58294;SDS011;45705;55.592;37.460;2023-05-16T00:54:07;19.55;;;6.72;;
58294;SDS011;45705;55.592;37.460;2023-05-16T00:56:32;24.17;;;9.82;;
58294;SDS011;45705;55.592;37.460;2023-05-16T00:58:58;29.55;;;11.20;;
58294;SDS011;45705;55.592;37.460;2023-05-16T01:01:25;27.52;;;12.25;;
58294;SDS011;45705;55.592;37.460;2023-05-16T01:03:52;29.98;;;10.50;;
58294;SDS011;45705;55.592;37.460;2023-05-16T01:06:19;28.83;;;10.93;;
58294;SDS011;45705;55.592;37.460;2023-05-16T01:08:45;23.25;;;11.20;;
58294;SDS011;45705;55.592;37.460;2023-05-16T01:11:19;25.67;;;12.02;;
58294;SDS011;45705;55.592;37.460;2023-05-16T01:13:58;26.13;;;10.70;;
58294;SDS011;45705;55.592;37.460;2023-05-16T01:16:37;30.63;;;10.25;;
58294;SDS011;45705;55.592;37.460;2023-05-16T01:27:24;27.50;;;11.98;;
58294;SDS011;45705;55.592;37.460;2023-05-16T01:29:55;29.00;;;10.57;;
58294;SDS011;45705;55.592;37.460;2023-05-16T01:32:21;31.20;;;11.43;;
58294;SDS011;45705;55.592;37.460;2023-05-16T01:34:48;28.83;;;11.75;;
58294;SDS011;45705;55.592;37.460;2023-05-16T01:37:16;32.80;;;11.68;;
58294;SDS011;45705;55.592;37.460;2023-05-16T01:42:38;12.05;;;5.43;;
58294;SDS011;45705;55.592;37.460;2023-05-16T01:45:52;12.90;;;6.03;;
58294;SDS011;45705;55.592;37.460;2023-05-16T01:48:03;15.43;;;5.43;;
58294;SDS011;45705;55.592;37.460;2023-05-16T01:50:38;14.57;;;5.28;;
58294;SDS011;45705;55.592;37.460;2023-05-16T01:53:11;22.88;;;7.45;;
58294;SDS011;45705;55.592;37.460;2023-05-16T01:55:42;16.70;;;7.13;;
58294;SDS011;45705;55.592;37.460;2023-05-16T01:58:10;27.77;;;9.57;;
58294;SDS011;45705;55.592;37.460;2023-05-16T02:00:38;24.73;;;9.73;;
58294;SDS011;45705;55.592;37.460;2023-05-16T02:03:07;25.60;;;9.82;;
58294;SDS011;45705;55.592;37.460;2023-05-16T02:05:33;34.03;;;10.27;;
58294;SDS011;45705;55.592;37.460;2023-05-16T02:08:01;26.33;;;10.07;;
58294;SDS011;45705;55.592;37.460;2023-05-16T02:10:27;24.40;;;10.50;;
58294;SDS011;45705;55.592;37.460;2023-05-16T02:12:53;25.90;;;10.70;;
58294;SDS011;45705;55.592;37.460;2023-05-16T02:15:19;25.38;;;10.88;;
58294;SDS011;45705;55.592;37.460;2023-05-16T02:17:45;26.02;;;11.27;;
58294;SDS011;45705;55.592;37.460;2023-05-16T02:20:12;25.20;;;10.70;;
58294;SDS011;45705;55.592;37.460;2023-05-16T02:22:38;29.38;;;11.80;;
58294;SDS011;45705;55.592;37.460;2023-05-16T02:25:04;28.75;;;10.30;;
58294;SDS011;45705;55.592;37.460;2023-05-16T02:27:30;23.27;;;10.80;;
58294;SDS011;45705;55.592;37.460;2023-05-16T02:29:57;37.63;;;10.48;;
58294;SDS011;45705;55.592;37.460;2023-05-16T02:32:23;29.30;;;10.52;;
58294;SDS011;45705;55.592;37.460;2023-05-16T02:34:51;24.25;;;9.88;;
58294;SDS011;45705;55.592;37.460;2023-05-16T02:37:17;24.70;;;10.25;;
58294;SDS011;45705;55.592;37.460;2023-05-16T02:39:43;32.03;;;10.23;;
58294;SDS011;45705;55.592;37.460;2023-05-16T02:42:10;24.02;;;9.93;;
58294;SDS011;45705;55.592;37.460;2023-05-16T02:44:37;23.92;;;9.93;;
58294;SDS011;45705;55.592;37.460;2023-05-16T02:47:03;23.40;;;10.32;;
58294;SDS011;45705;55.592;37.460;2023-05-16T02:49:29;20.85;;;10.15;;
58294;SDS011;45705;55.592;37.460;2023-05-16T02:51:55;25.02;;;9.95;;
58294;SDS011;45705;55.592;37.460;2023-05-16T02:54:20;29.20;;;10.77;;
58294;SDS011;45705;55.592;37.460;2023-05-16T02:56:46;29.20;;;10.00;;
58294;SDS011;45705;55.592;37.460;2023-05-16T02:59:12;26.20;;;10.25;;
58294;SDS011;45705;55.592;37.460;2023-05-16T03:01:37;27.67;;;10.43;;
58294;SDS011;45705;55.592;37.460;2023-05-16T03:04:04;31.90;;;9.98;;
58294;SDS011;45705;55.592;37.460;2023-05-16T03:06:30;28.20;;;10.38;;
58294;SDS011;45705;55.592;37.460;2023-05-16T03:08:58;22.67;;;9.38;;
58294;SDS011;45705;55.592;37.460;2023-05-16T03:11:25;21.00;;;9.98;;
58294;SDS011;45705;55.592;37.460;2023-05-16T03:13:53;22.20;;;9.18;;
58294;SDS011;45705;55.592;37.460;2023-05-16T03:16:19;15.23;;;5.80;;
58294;SDS011;45705;55.592;37.460;2023-05-16T03:18:46;22.77;;;8.43;;
58294;SDS011;45705;55.592;37.460;2023-05-16T03:21:12;16.75;;;6.32;;
58294;SDS011;45705;55.592;37.460;2023-05-16T03:23:37;14.10;;;5.80;;
58294;SDS011;45705;55.592;37.460;2023-05-16T03:26:04;9.57;;;5.55;;
58294;SDS011;45705;55.592;37.460;2023-05-16T03:28:30;15.77;;;4.72;;
58294;SDS011;45705;55.592;37.460;2023-05-16T03:30:56;9.60;;;4.32;;
58294;SDS011;45705;55.592;37.460;2023-05-16T03:33:22;11.55;;;4.25;;
58294;SDS011;45705;55.592;37.460;2023-05-16T03:35:48;15.18;;;4.53;;
58294;SDS011;45705;55.592;37.460;2023-05-16T03:38:15;11.50;;;4.10;;
58294;SDS011;45705;55.592;37.460;2023-05-16T03:40:43;8.88;;;3.70;;
58294;SDS011;45705;55.592;37.460;2023-05-16T03:43:09;12.02;;;3.60;;
58294;SDS011;45705;55.592;37.460;2023-05-16T03:45:35;12.63;;;3.70;;
58294;SDS011;45705;55.592;37.460;2023-05-16T03:48:01;6.55;;;3.50;;
58294;SDS011;45705;55.592;37.460;2023-05-16T03:50:27;11.60;;;3.97;;
58294;SDS011;45705;55.592;37.460;2023-05-16T03:52:53;14.20;;;3.55;;
58294;SDS011;45705;55.592;37.460;2023-05-16T03:55:19;8.73;;;3.05;;
58294;SDS011;45705;55.592;37.460;2023-05-16T03:57:46;6.45;;;2.80;;
58294;SDS011;45705;55.592;37.460;2023-05-16T04:00:14;10.75;;;3.00;;
58294;SDS011;45705;55.592;37.460;2023-05-16T04:02:41;8.00;;;2.83;;
58294;SDS011;45705;55.592;37.460;2023-05-16T04:05:09;9.43;;;2.85;;
58294;SDS011;45705;55.592;37.460;2023-05-16T04:07:36;10.03;;;2.80;;
58294;SDS011;45705;55.592;37.460;2023-05-16T04:10:02;8.55;;;2.95;;
58294;SDS011;45705;55.592;37.460;2023-05-16T04:12:30;6.78;;;2.83;;
58294;SDS011;45705;55.592;37.460;2023-05-16T04:14:56;10.20;;;2.42;;
58294;SDS011;45705;55.592;37.460;2023-05-16T04:17:22;10.85;;;2.78;;
58294;SDS011;45705;55.592;37.460;2023-05-16T04:19:48;8.60;;;3.20;;
58294;SDS011;45705;55.592;37.460;2023-05-16T04:22:14;13.00;;;2.92;;
58294;SDS011;45705;55.592;37.460;2023-05-16T04:24:40;9.90;;;2.88;;
58294;SDS011;45705;55.592;37.460;2023-05-16T04:27:06;9.45;;;3.30;;
58294;SDS011;45705;55.592;37.460;2023-05-16T04:29:34;8.70;;;3.58;;
58294;SDS011;45705;55.592;37.460;2023-05-16T04:32:00;9.90;;;3.35;;
58294;SDS011;45705;55.592;37.460;2023-05-16T04:34:27;13.52;;;3.85;;
58294;SDS011;45705;55.592;37.460;2023-05-16T04:36:53;5.85;;;3.05;;
58294;SDS011;45705;55.592;37.460;2023-05-16T04:39:20;7.57;;;3.00;;
58294;SDS011;45705;55.592;37.460;2023-05-16T04:41:45;15.65;;;3.70;;
58294;SDS011;45705;55.592;37.460;2023-05-16T04:44:11;7.78;;;2.90;;
58294;SDS011;45705;55.592;37.460;2023-05-16T04:46:37;8.65;;;3.03;;
58294;SDS011;45705;55.592;37.460;2023-05-16T04:49:03;6.32;;;2.83;;
58294;SDS011;45705;55.592;37.460;2023-05-16T04:51:29;8.50;;;3.00;;
58294;SDS011;45705;55.592;37.460;2023-05-16T04:53:57;6.57;;;2.28;;
58294;SDS011;45705;55.592;37.460;2023-05-16T04:56:22;6.47;;;2.72;;
58294;SDS011;45705;55.592;37.460;2023-05-16T04:58:48;11.85;;;2.47;;
58294;SDS011;45705;55.592;37.460;2023-05-16T05:01:14;5.38;;;2.15;;
58294;SDS011;45705;55.592;37.460;2023-05-16T05:03:40;5.65;;;2.30;;
58294;SDS011;45705;55.592;37.460;2023-05-16T05:06:06;6.25;;;2.10;;
58294;SDS011;45705;55.592;37.460;2023-05-16T05:08:31;6.90;;;2.55;;
58294;SDS011;45705;55.592;37.460;2023-05-16T05:10:57;6.70;;;2.40;;
58294;SDS011;45705;55.592;37.460;2023-05-16T05:13:23;10.38;;;2.50;;
58294;SDS011;45705;55.592;37.460;2023-05-16T05:15:49;10.98;;;2.00;;
58294;SDS011;45705;55.592;37.460;2023-05-16T05:18:16;6.80;;;2.55;;
58294;SDS011;45705;55.592;37.460;2023-05-16T05:20:42;6.97;;;2.45;;
58294;SDS011;45705;55.592;37.460;2023-05-16T05:23:08;3.85;;;2.30;;
58294;SDS011;45705;55.592;37.460;2023-05-16T05:25:34;16.52;;;3.22;;
58294;SDS011;45705;55.592;37.460;2023-05-16T05:28:00;8.10;;;2.40;;
58294;SDS011;45705;55.592;37.460;2023-05-16T05:30:26;7.47;;;2.28;;
58294;SDS011;45705;55.592;37.460;2023-05-16T05:32:52;7.25;;;2.33;;
58294;SDS011;45705;55.592;37.460;2023-05-16T05:35:19;4.07;;;2.42;;
58294;SDS011;45705;55.592;37.460;2023-05-16T05:37:45;8.60;;;2.40;;
58294;SDS011;45705;55.592;37.460;2023-05-16T05:40:11;5.07;;;2.35;;
58294;SDS011;45705;55.592;37.460;2023-05-16T05:42:37;8.60;;;2.55;;
58294;SDS011;45705;55.592;37.460;2023-05-16T05:45:03;14.13;;;2.80;;
58294;SDS011;45705;55.592;37.460;2023-05-16T05:47:31;6.57;;;2.47;;
58294;SDS011;45705;55.592;37.460;2023-05-16T05:49:56;17.98;;;3.85;;
58294;SDS011;45705;55.592;37.460;2023-05-16T05:52:23;5.43;;;2.60;;
58294;SDS011;45705;55.592;37.460;2023-05-16T05:54:49;9.02;;;2.90;;
58294;SDS011;45705;55.592;37.460;2023-05-16T05:57:15;10.23;;;2.50;;
58294;SDS011;45705;55.592;37.460;2023-05-16T05:59:40;7.05;;;2.33;;
58294;SDS011;45705;55.592;37.460;2023-05-16T06:02:06;4.25;;;2.47;;
58294;SDS011;45705;55.592;37.460;2023-05-16T06:04:32;7.20;;;2.45;;
58294;SDS011;45705;55.592;37.460;2023-05-16T06:06:58;5.78;;;2.40;;
58294;SDS011;45705;55.592;37.460;2023-05-16T06:09:24;12.20;;;2.30;;
58294;SDS011;45705;55.592;37.460;2023-05-16T06:11:50;10.32;;;2.50;;
58294;SDS011;45705;55.592;37.460;2023-05-16T06:14:16;6.93;;;1.95;;
58294;SDS011;45705;55.592;37.460;2023-05-16T06:16:41;7.35;;;2.35;;
58294;SDS011;45705;55.592;37.460;2023-05-16T06:19:07;12.75;;;2.53;;
58294;SDS011;45705;55.592;37.460;2023-05-16T06:21:33;6.80;;;2.28;;
58294;SDS011;45705;55.592;37.460;2023-05-16T06:23:59;4.53;;;1.88;;
58294;SDS011;45705;55.592;37.460;2023-05-16T06:26:25;5.55;;;1.80;;
58294;SDS011;45705;55.592;37.460;2023-05-16T06:28:51;11.10;;;1.90;;
58294;SDS011;45705;55.592;37.460;2023-05-16T06:31:17;6.55;;;1.92;;
58294;SDS011;45705;55.592;37.460;2023-05-16T06:33:42;6.70;;;1.85;;
58294;SDS011;45705;55.592;37.460;2023-05-16T06:36:08;4.85;;;1.73;;
58294;SDS011;45705;55.592;37.460;2023-05-16T06:38:34;4.35;;;1.48;;
58294;SDS011;45705;55.592;37.460;2023-05-16T06:41:00;3.65;;;1.50;;
58294;SDS011;45705;55.592;37.460;2023-05-16T06:43:27;2.65;;;1.40;;
58294;SDS011;45705;55.592;37.460;2023-05-16T06:45:52;4.70;;;1.30;;
58294;SDS011;45705;55.592;37.460;2023-05-16T06:48:18;3.25;;;1.52;;
58294;SDS011;45705;55.592;37.460;2023-05-16T06:50:50;5.25;;;1.40;;
58294;SDS011;45705;55.592;37.460;2023-05-16T06:53:18;4.10;;;1.35;;
58294;SDS011;45705;55.592;37.460;2023-05-16T06:55:45;9.43;;;1.40;;
58294;SDS011;45705;55.592;37.460;2023-05-16T06:58:11;2.75;;;1.20;;
58294;SDS011;45705;55.592;37.460;2023-05-16T07:00:37;3.63;;;1.23;;
58294;SDS011;45705;55.592;37.460;2023-05-16T07:03:03;6.95;;;1.20;;
58294;SDS011;45705;55.592;37.460;2023-05-16T07:05:29;1.85;;;1.20;;
58294;SDS011;45705;55.592;37.460;2023-05-16T07:07:55;2.17;;;1.00;;
58294;SDS011;45705;55.592;37.460;2023-05-16T07:10:22;4.60;;;1.40;;
58294;SDS011;45705;55.592;37.460;2023-05-16T07:12:48;4.82;;;1.50;;
58294;SDS011;45705;55.592;37.460;2023-05-16T07:15:14;1.95;;;1.10;;
58294;SDS011;45705;55.592;37.460;2023-05-16T07:17:40;3.55;;;1.20;;
58294;SDS011;45705;55.592;37.460;2023-05-16T07:20:06;1.77;;;1.00;;
58294;SDS011;45705;55.592;37.460;2023-05-16T07:22:35;5.95;;;1.20;;
58294;SDS011;45705;55.592;37.460;2023-05-16T07:25:01;4.20;;;1.10;;
58294;SDS011;45705;55.592;37.460;2023-05-16T07:27:27;2.20;;;0.93;;
58294;SDS011;45705;55.592;37.460;2023-05-16T07:29:53;2.45;;;0.77;;
58294;SDS011;45705;55.592;37.460;2023-05-16T07:32:19;1.83;;;0.70;;
58294;SDS011;45705;55.592;37.460;2023-05-16T07:34:45;4.45;;;1.00;;
58294;SDS011;45705;55.592;37.460;2023-05-16T07:37:11;3.25;;;0.88;;
58294;SDS011;45705;55.592;37.460;2023-05-16T07:39:40;2.53;;;0.90;;
58294;SDS011;45705;55.592;37.460;2023-05-16T07:42:07;1.50;;;0.80;;
58294;SDS011;45705;55.592;37.460;2023-05-16T07:44:33;3.35;;;0.90;;
58294;SDS011;45705;55.592;37.460;2023-05-16T07:47:01;1.77;;;0.80;;
58294;SDS011;45705;55.592;37.460;2023-05-16T07:49:27;1.90;;;0.90;;
58294;SDS011;45705;55.592;37.460;2023-05-16T07:51:53;2.25;;;0.90;;
58294;SDS011;45705;55.592;37.460;2023-05-16T07:54:19;3.08;;;0.68;;
58294;SDS011;45705;55.592;37.460;2023-05-16T07:56:45;4.93;;;1.10;;
58294;SDS011;45705;55.592;37.460;2023-05-16T07:59:11;1.95;;;0.82;;
58294;SDS011;45705;55.592;37.460;2023-05-16T08:01:37;3.40;;;0.90;;
58294;SDS011;45705;55.592;37.460;2023-05-16T08:04:03;2.15;;;0.70;;
58294;SDS011;45705;55.592;37.460;2023-05-16T08:06:29;3.10;;;0.90;;
58294;SDS011;45705;55.592;37.460;2023-05-16T08:08:55;6.15;;;1.00;;
58294;SDS011;45705;55.592;37.460;2023-05-16T08:11:21;2.35;;;0.90;;
58294;SDS011;45705;55.592;37.460;2023-05-16T08:13:47;1.52;;;0.70;;
58294;SDS011;45705;55.592;37.460;2023-05-16T08:16:14;1.83;;;1.15;;
58294;SDS011;45705;55.592;37.460;2023-05-16T08:18:40;2.78;;;1.00;;
58294;SDS011;45705;55.592;37.460;2023-05-16T08:21:07;2.40;;;1.02;;
58294;SDS011;45705;55.592;37.460;2023-05-16T08:23:37;2.90;;;1.15;;
58294;SDS011;45705;55.592;37.460;2023-05-16T08:26:03;1.42;;;1.10;;
58294;SDS011;45705;55.592;37.460;2023-05-16T08:28:29;4.35;;;1.30;;
58294;SDS011;45705;55.592;37.460;2023-05-16T08:30:55;2.53;;;0.98;;
58294;SDS011;45705;55.592;37.460;2023-05-16T08:33:21;2.40;;;1.15;;
58294;SDS011;45705;55.592;37.460;2023-05-16T08:35:49;3.65;;;1.30;;
58294;SDS011;45705;55.592;37.460;2023-05-16T08:38:17;4.45;;;1.42;;
58294;SDS011;45705;55.592;37.460;2023-05-16T08:40:43;7.45;;;1.25;;
58294;SDS011;45705;55.592;37.460;2023-05-16T08:43:09;10.40;;;1.25;;
58294;SDS011;45705;55.592;37.460;2023-05-16T08:45:35;2.03;;;1.00;;
58294;SDS011;45705;55.592;37.460;2023-05-16T08:48:01;5.95;;;1.10;;
58294;SDS011;45705;55.592;37.460;2023-05-16T08:50:29;4.00;;;1.35;;
58294;SDS011;45705;55.592;37.460;2023-05-16T08:52:56;3.95;;;1.00;;
58294;SDS011;45705;55.592;37.460;2023-05-16T08:55:22;3.20;;;0.95;;
58294;SDS011;45705;55.592;37.460;2023-05-16T08:57:51;2.35;;;1.48;;
58294;SDS011;45705;55.592;37.460;2023-05-16T09:00:19;1.25;;;1.00;;
58294;SDS011;45705;55.592;37.460;2023-05-16T09:02:46;3.30;;;1.05;;
58294;SDS011;45705;55.592;37.460;2023-05-16T09:05:13;3.10;;;1.27;;
58294;SDS011;45705;55.592;37.460;2023-05-16T09:07:40;6.18;;;1.20;;
58294;SDS011;45705;55.592;37.460;2023-05-16T09:10:07;2.63;;;1.10;;
58294;SDS011;45705;55.592;37.460;2023-05-16T09:12:34;5.95;;;1.10;;
58294;SDS011;45705;55.592;37.460;2023-05-16T09:15:03;2.97;;;1.10;;
58294;SDS011;45705;55.592;37.460;2023-05-16T09:17:34;2.50;;;1.10;;
58294;SDS011;45705;55.592;37.460;2023-05-16T09:22:36;5.88;;;1.25;;
58294;SDS011;45705;55.592;37.460;2023-05-16T09:25:02;2.03;;;0.98;;
58294;SDS011;45705;55.592;37.460;2023-05-16T09:27:30;4.33;;;1.03;;
58294;SDS011;45705;55.592;37.460;2023-05-16T09:29:57;1.50;;;0.98;;
58294;SDS011;45705;55.592;37.460;2023-05-16T09:32:23;4.53;;;1.00;;
58294;SDS011;45705;55.592;37.460;2023-05-16T09:34:51;3.80;;;1.20;;
58294;SDS011;45705;55.592;37.460;2023-05-16T09:37:18;1.70;;;0.90;;
58294;SDS011;45705;55.592;37.460;2023-05-16T09:39:48;4.63;;;1.20;;
58294;SDS011;45705;55.592;37.460;2023-05-16T09:42:16;3.95;;;1.00;;
58294;SDS011;45705;55.592;37.460;2023-05-16T09:44:50;2.60;;;1.10;;
58294;SDS011;45705;55.592;37.460;2023-05-16T09:47:17;1.02;;;0.80;;
58294;SDS011;45705;55.592;37.460;2023-05-16T09:49:44;1.95;;;0.93;;
58294;SDS011;45705;55.592;37.460;2023-05-16T09:52:11;2.67;;;0.90;;
58294;SDS011;45705;55.592;37.460;2023-05-16T09:54:38;3.80;;;1.10;;
58294;SDS011;45705;55.592;37.460;2023-05-16T09:57:04;2.50;;;1.00;;
58294;SDS011;45705;55.592;37.460;2023-05-16T09:59:30;3.83;;;1.00;;
58294;SDS011;45705;55.592;37.460;2023-05-16T10:02:00;6.78;;;1.08;;
58294;SDS011;45705;55.592;37.460;2023-05-16T10:04:27;2.92;;;0.80;;
58294;SDS011;45705;55.592;37.460;2023-05-16T10:06:56;2.97;;;0.90;;
58294;SDS011;45705;55.592;37.460;2023-05-16T10:09:26;2.58;;;1.02;;
58294;SDS011;45705;55.592;37.460;2023-05-16T10:11:52;2.20;;;0.80;;
58294;SDS011;45705;55.592;37.460;2023-05-16T10:14:19;2.60;;;1.10;;
58294;SDS011;45705;55.592;37.460;2023-05-16T10:16:47;3.70;;;1.45;;
58294;SDS011;45705;55.592;37.460;2023-05-16T10:19:15;3.65;;;0.88;;
58294;SDS011;45705;55.592;37.460;2023-05-16T10:21:42;4.30;;;1.07;;
58294;SDS011;45705;55.592;37.460;2023-05-16T10:24:13;1.77;;;0.77;;
58294;SDS011;45705;55.592;37.460;2023-05-16T10:26:46;2.45;;;0.68;;
58294;SDS011;45705;55.592;37.460;2023-05-16T10:29:12;2.53;;;0.80;;
58294;SDS011;45705;55.592;37.460;2023-05-16T10:31:38;3.45;;;0.70;;
58294;SDS011;45705;55.592;37.460;2023-05-16T10:34:05;3.90;;;0.75;;
58294;SDS011;45705;55.592;37.460;2023-05-16T10:36:31;3.15;;;0.90;;
58294;SDS011;45705;55.592;37.460;2023-05-16T10:38:58;4.10;;;1.10;;
58294;SDS011;45705;55.592;37.460;2023-05-16T10:41:25;3.97;;;0.90;;
58294;SDS011;45705;55.592;37.460;2023-05-16T10:43:54;7.38;;;0.73;;
58294;SDS011;45705;55.592;37.460;2023-05-16T10:46:22;2.13;;;0.70;;
58294;SDS011;45705;55.592;37.460;2023-05-16T10:48:48;2.47;;;0.68;;
58294;SDS011;45705;55.592;37.460;2023-05-16T10:53:46;5.18;;;0.88;;
58294;SDS011;45705;55.592;37.460;2023-05-16T10:56:12;3.88;;;0.80;;
58294;SDS011;45705;55.592;37.460;2023-05-16T10:58:39;10.93;;;1.00;;
58294;SDS011;45705;55.592;37.460;2023-05-16T11:09:11;5.43;;;1.25;;
58294;SDS011;45705;55.592;37.460;2023-05-16T11:14:23;2.83;;;0.90;;
58294;SDS011;45705;55.592;37.460;2023-05-16T11:17:00;2.15;;;0.68;;
58294;SDS011;45705;55.592;37.460;2023-05-16T11:27:34;7.18;;;1.40;;
58294;SDS011;45705;55.592;37.460;2023-05-16T11:32:33;5.40;;;1.27;;
58294;SDS011;45705;55.592;37.460;2023-05-16T11:35:00;1.75;;;0.80;;
58294;SDS011;45705;55.592;37.460;2023-05-16T11:37:26;2.55;;;0.80;;
58294;SDS011;45705;55.592;37.460;2023-05-16T11:39:52;3.05;;;1.05;;
58294;SDS011;45705;55.592;37.460;2023-05-16T11:42:22;3.58;;;1.00;;
58294;SDS011;45705;55.592;37.460;2023-05-16T11:44:48;4.05;;;1.13;;
58294;SDS011;45705;55.592;37.460;2023-05-16T11:47:14;2.28;;;1.00;;
58294;SDS011;45705;55.592;37.460;2023-05-16T11:49:40;2.92;;;0.88;;
58294;SDS011;45705;55.592;37.460;2023-05-16T11:52:06;7.68;;;0.93;;
58294;SDS011;45705;55.592;37.460;2023-05-16T11:54:33;1.80;;;0.90;;
58294;SDS011;45705;55.592;37.460;2023-05-16T11:56:59;3.15;;;0.80;;
58294;SDS011;45705;55.592;37.460;2023-05-16T11:59:26;4.72;;;0.80;;
58294;SDS011;45705;55.592;37.460;2023-05-16T12:01:52;6.50;;;0.90;;
58294;SDS011;45705;55.592;37.460;2023-05-16T12:04:17;1.48;;;1.00;;
58294;SDS011;45705;55.592;37.460;2023-05-16T12:06:56;3.25;;;1.10;;
58294;SDS011;45705;55.592;37.460;2023-05-16T12:09:23;4.53;;;1.10;;
58294;SDS011;45705;55.592;37.460;2023-05-16T12:11:49;2.35;;;0.90;;
58294;SDS011;45705;55.592;37.460;2023-05-16T12:14:16;3.08;;;0.93;;
58294;SDS011;45705;55.592;37.460;2023-05-16T12:16:43;4.57;;;1.10;;
58294;SDS011;45705;55.592;37.460;2023-05-16T12:19:10;3.20;;;0.90;;
58294;SDS011;45705;55.592;37.460;2023-05-16T12:21:37;1.40;;;0.60;;
58294;SDS011;45705;55.592;37.460;2023-05-16T12:24:04;2.20;;;0.88;;
58294;SDS011;45705;55.592;37.460;2023-05-16T12:26:33;1.70;;;0.80;;
58294;SDS011;45705;55.592;37.460;2023-05-16T12:28:59;3.28;;;0.80;;
58294;SDS011;45705;55.592;37.460;2023-05-16T12:33:55;8.93;;;1.00;;
58294;SDS011;45705;55.592;37.460;2023-05-16T12:36:21;4.80;;;1.00;;
58294;SDS011;45705;55.592;37.460;2023-05-16T12:38:48;6.40;;;1.00;;
58294;SDS011;45705;55.592;37.460;2023-05-16T12:41:19;2.53;;;0.82;;
58294;SDS011;45705;55.592;37.460;2023-05-16T12:43:47;2.10;;;0.98;;
58294;SDS011;45705;55.592;37.460;2023-05-16T12:46:18;2.80;;;1.20;;
58294;SDS011;45705;55.592;37.460;2023-05-16T12:48:44;1.85;;;1.08;;
58294;SDS011;45705;55.592;37.460;2023-05-16T12:51:12;2.75;;;1.02;;
58294;SDS011;45705;55.592;37.460;2023-05-16T12:53:43;5.35;;;1.20;;
58294;SDS011;45705;55.592;37.460;2023-05-16T12:56:10;3.38;;;0.98;;
58294;SDS011;45705;55.592;37.460;2023-05-16T12:58:37;2.55;;;0.98;;
58294;SDS011;45705;55.592;37.460;2023-05-16T13:01:03;6.93;;;1.17;;
58294;SDS011;45705;55.592;37.460;2023-05-16T13:03:30;2.20;;;1.00;;
58294;SDS011;45705;55.592;37.460;2023-05-16T13:05:57;2.30;;;0.85;;
58294;SDS011;45705;55.592;37.460;2023-05-16T13:08:24;2.67;;;1.00;;
58294;SDS011;45705;55.592;37.460;2023-05-16T13:10:51;1.92;;;0.85;;
58294;SDS011;45705;55.592;37.460;2023-05-16T13:13:16;1.75;;;1.00;;
58294;SDS011;45705;55.592;37.460;2023-05-16T13:15:45;7.22;;;1.08;;
58294;SDS011;45705;55.592;37.460;2023-05-16T13:18:15;4.82;;;1.27;;
58294;SDS011;45705;55.592;37.460;2023-05-16T13:20:40;4.13;;;1.05;;
58294;SDS011;45705;55.592;37.460;2023-05-16T13:23:06;1.90;;;0.98;;
58294;SDS011;45705;55.592;37.460;2023-05-16T13:25:32;3.40;;;0.90;;
58294;SDS011;45705;55.592;37.460;2023-05-16T13:27:58;4.55;;;1.15;;
58294;SDS011;45705;55.592;37.460;2023-05-16T13:30:24;6.43;;;0.80;;
58294;SDS011;45705;55.592;37.460;2023-05-16T13:32:50;4.72;;;0.80;;
58294;SDS011;45705;55.592;37.460;2023-05-16T13:35:18;1.08;;;0.73;;
58294;SDS011;45705;55.592;37.460;2023-05-16T13:37:44;3.95;;;0.85;;
58294;SDS011;45705;55.592;37.460;2023-05-16T13:40:10;1.63;;;0.80;;
58294;SDS011;45705;55.592;37.460;2023-05-16T13:42:36;4.03;;;0.80;;
58294;SDS011;45705;55.592;37.460;2023-05-16T13:45:03;3.90;;;0.80;;
58294;SDS011;45705;55.592;37.460;2023-05-16T13:47:32;1.98;;;1.00;;
58294;SDS011;45705;55.592;37.460;2023-05-16T13:49:58;2.92;;;1.00;;
58294;SDS011;45705;55.592;37.460;2023-05-16T13:52:29;2.47;;;1.10;;
58294;SDS011;45705;55.592;37.460;2023-05-16T13:54:55;4.32;;;0.88;;
58294;SDS011;45705;55.592;37.460;2023-05-16T13:57:21;4.10;;;1.17;;
58294;SDS011;45705;55.592;37.460;2023-05-16T13:59:47;10.18;;;4.20;;
58294;SDS011;45705;55.592;37.460;2023-05-16T14:02:13;3.10;;;1.02;;
58294;SDS011;45705;55.592;37.460;2023-05-16T14:04:39;2.20;;;1.00;;
58294;SDS011;45705;55.592;37.460;2023-05-16T14:07:05;1.58;;;0.95;;
58294;SDS011;45705;55.592;37.460;2023-05-16T14:09:32;3.78;;;0.90;;
58294;SDS011;45705;55.592;37.460;2023-05-16T14:11:59;4.88;;;0.98;;
58294;SDS011;45705;55.592;37.460;2023-05-16T14:14:27;5.00;;;0.90;;
58294;SDS011;45705;55.592;37.460;2023-05-16T14:16:52;6.75;;;0.98;;
58294;SDS011;45705;55.592;37.460;2023-05-16T14:19:18;3.72;;;0.90;;
58294;SDS011;45705;55.592;37.460;2023-05-16T14:21:44;1.35;;;0.90;;
58294;SDS011;45705;55.592;37.460;2023-05-16T14:24:10;2.28;;;1.00;;
58294;SDS011;45705;55.592;37.460;2023-05-16T14:26:36;3.55;;;1.00;;
58294;SDS011;45705;55.592;37.460;2023-05-16T14:29:02;4.28;;;1.25;;
58294;SDS011;45705;55.592;37.460;2023-05-16T14:31:28;1.67;;;1.10;;
58294;SDS011;45705;55.592;37.460;2023-05-16T14:33:54;2.45;;;1.00;;
58294;SDS011;45705;55.592;37.460;2023-05-16T14:36:20;9.10;;;1.33;;
58294;SDS011;45705;55.592;37.460;2023-05-16T14:38:46;3.65;;;1.27;;
58294;SDS011;45705;55.592;37.460;2023-05-16T14:41:13;4.65;;;1.00;;
58294;SDS011;45705;55.592;37.460;2023-05-16T14:43:39;4.50;;;1.20;;
58294;SDS011;45705;55.592;37.460;2023-05-16T14:46:05;2.25;;;1.00;;
58294;SDS011;45705;55.592;37.460;2023-05-16T14:48:30;8.55;;;1.15;;
58294;SDS011;45705;55.592;37.460;2023-05-16T14:50:57;2.15;;;1.17;;
58294;SDS011;45705;55.592;37.460;2023-05-16T14:53:24;1.77;;;1.08;;
58294;SDS011;45705;55.592;37.460;2023-05-16T14:55:50;4.05;;;1.10;;
58294;SDS011;45705;55.592;37.460;2023-05-16T14:58:16;2.72;;;1.00;;
58294;SDS011;45705;55.592;37.460;2023-05-16T15:00:41;2.03;;;1.13;;
58294;SDS011;45705;55.592;37.460;2023-05-16T15:03:07;6.43;;;1.33;;
58294;SDS011;45705;55.592;37.460;2023-05-16T15:05:33;7.30;;;1.60;;
58294;SDS011;45705;55.592;37.460;2023-05-16T15:07:59;3.90;;;1.67;;